createdAt,value
2022-09-15T00:07:17.212Z,12.9
2022-09-15T00:57:19.655Z,12.3
2022-09-15T04:17:30.252Z,13.3
2022-09-15T04:47:31.861Z,13.4
2022-09-15T05:37:35.290Z,13.5
2022-09-15T05:57:36.872Z,13.6
2022-09-15T06:07:37.599Z,13.7
2022-09-15T06:17:38.197Z,13.8
2022-09-15T06:27:38.569Z,13.9
2022-09-15T06:57:41.007Z,14.1
2022-09-15T07:07:41.193Z,14.2
2022-09-15T07:17:42.066Z,14.4
2022-09-15T07:27:43.063Z,14.5
2022-09-15T07:37:43.488Z,14.6
2022-09-15T07:47:44.246Z,14.7
2022-09-15T07:57:44.883Z,14.8
2022-09-15T08:17:46.311Z,15.1
2022-09-15T08:27:47.037Z,15.3
2022-09-15T08:37:47.384Z,15.3
2022-09-15T08:47:47.976Z,15.5
2022-09-15T08:57:48.228Z,15.8
2022-09-15T09:07:48.383Z,16.2
2022-09-15T09:17:48.943Z,16.5
2022-09-15T09:18:10.813Z,16.5
2022-09-15T09:27:54.776Z,16.5
2022-09-15T09:37:55.766Z,16.3
2022-09-15T09:47:59.540Z,15.9
2022-09-15T09:57:57.064Z,15
2022-09-15T10:07:57.825Z,14.8
2022-09-15T10:17:57.946Z,14.8
2022-09-15T10:27:58.484Z,14.8
2022-09-15T10:37:58.999Z,15
2022-09-15T10:47:59.509Z,15.6
2022-09-15T10:58:00.280Z,16.1
2022-09-15T11:08:00.709Z,17
2022-09-15T11:18:01.076Z,17.6
2022-09-15T11:28:01.949Z,18.3
2022-09-15T11:38:03.010Z,18.9
2022-09-15T11:48:04.049Z,18.3
2022-09-15T11:58:04.553Z,18.4
2022-09-15T12:08:04.952Z,17.9
2022-09-15T12:18:06.491Z,18.1
2022-09-15T12:28:06.293Z,17.8
2022-09-15T12:38:06.877Z,17.3
2022-09-15T12:48:07.827Z,18.1
2022-09-15T12:58:08.475Z,18.2
2022-09-15T13:08:09.126Z,18.9
2022-09-15T13:28:10.114Z,18.3
2022-09-15T13:38:17.272Z,18.4
2022-09-15T13:48:11.087Z,18.4
2022-09-15T14:08:12.808Z,18.4
2022-09-15T14:18:13.804Z,18.5
2022-09-15T14:28:14.752Z,18.5
2022-09-15T14:38:15.623Z,17.7
2022-09-15T14:48:16.278Z,17.2
2022-09-15T14:58:16.517Z,17
2022-09-15T15:08:17.179Z,17
2022-09-15T15:18:18.054Z,17
2022-09-15T15:28:18.181Z,17
2022-09-15T15:38:18.915Z,17.1
2022-09-15T15:48:19.525Z,17.2
2022-09-15T15:58:19.880Z,17.2
2022-09-15T16:18:21.365Z,17.3
2022-09-15T16:28:21.690Z,17.3
2022-09-15T16:38:22.100Z,17.1
2022-09-15T16:48:22.326Z,16.8
2022-09-15T16:58:23.091Z,16.6
2022-09-15T17:18:23.608Z,16.4
2022-09-15T17:28:23.746Z,16.4
2022-09-15T17:48:24.857Z,16
2022-09-15T17:58:25.216Z,15.8
2022-09-15T18:18:26.688Z,15.4
2022-09-15T18:28:27.154Z,15.3
2022-09-15T18:38:27.936Z,15.2
2022-09-15T18:48:28.129Z,15.2
2022-09-15T18:58:28.539Z,15.1
2022-09-15T19:08:28.880Z,15.1
2022-09-15T19:18:29.863Z,15.1
2022-09-15T19:28:30.598Z,15.1
2022-09-15T19:38:31.219Z,14.9
2022-09-15T19:48:33.983Z,14.7
2022-09-15T19:58:32.345Z,14.5
2022-09-15T20:18:33.177Z,14
2022-09-15T20:48:34.909Z,13.8
2022-09-15T20:58:35.085Z,13.7
2022-09-15T21:18:35.628Z,13.4
2022-09-15T21:28:36.063Z,13.3
2022-09-15T21:48:36.317Z,13.2
2022-09-15T21:58:42.258Z,13.2
2022-09-15T22:08:38.282Z,13.2
2022-09-15T22:18:38.848Z,13.2
2022-09-15T22:28:39.152Z,13.1
2022-09-15T22:38:39.644Z,13.1
2022-09-15T22:48:43.430Z,13.1
2022-09-15T22:58:40.272Z,13.1
2022-09-15T23:08:41.113Z,13.1
2022-09-15T23:18:41.592Z,13.1
2022-09-15T23:28:42.420Z,13
2022-09-15T23:38:43.092Z,13
2022-09-15T23:48:43.836Z,12.9
2022-09-15T23:58:44.013Z,12.9
